Time;durP1;ratioP1;P1;durP2;ratioP2;P2;SDS_P1;SDS_P2;PMS_P1;PMS_P2;Temp;Humidity;BMP_temperature;BMP_pressure;BME280_temperature;BME280_humidity;BME280_pressure;Samples;Min_cycle;Max_cycle;Signal;HPM_P1;HPM_P2
2022/08/09 00:02:25;;;;;;;23.58;4.88;;;;;;;26.31;44.89;100478.03;5017142;28;20377;-85
2022/08/09 00:04:50;;;;;;;15.05;5.40;;;;;;;26.36;45.40;100492.00;5016040;28;20032;-88
2022/08/09 00:07:15;;;;;;;12.50;5.82;;;;;;;26.25;45.71;100481.72;5000112;28;20026;-87
2022/08/09 00:09:41;;;;;;;14.52;4.40;;;;;;;26.20;46.10;100476.91;5017746;28;20397;-87
2022/08/09 00:12:08;;;;;;;25.50;4.93;;;;;;;26.21;46.58;100499.78;5017832;28;20033;-87
2022/08/09 00:14:34;;;;;;;10.52;4.65;;;;;;;26.04;47.13;100482.16;5017327;28;20077;-85
2022/08/09 00:16:59;;;;;;;22.30;4.70;;;;;;;26.03;47.47;100492.31;5017265;28;20125;-85
2022/08/09 00:19:25;;;;;;;24.38;5.35;;;;;;;25.95;47.77;100487.13;5017082;28;20025;-84
2022/08/09 00:21:50;;;;;;;10.43;5.47;;;;;;;25.97;48.22;100505.13;5017005;28;20029;-85
2022/08/09 00:24:16;;;;;;;17.13;4.15;;;;;;;25.99;48.53;100497.44;5017347;28;20560;-85
2022/08/09 00:26:42;;;;;;;10.20;4.70;;;;;;;25.94;48.81;100505.56;4998867;28;20018;-87
2022/08/09 00:29:07;;;;;;;16.27;5.93;;;;;;;25.77;49.08;100490.69;4999482;28;20120;-86
2022/08/09 00:31:33;;;;;;;6.85;4.90;;;;;;;25.84;49.43;100515.44;5017476;28;20026;-86
2022/08/09 00:33:59;;;;;;;6.40;3.75;;;;;;;25.68;49.68;100494.81;5016872;28;20114;-86
2022/08/09 00:36:25;;;;;;;11.43;4.55;;;;;;;25.72;49.85;100498.78;5002301;28;20033;-85
2022/08/09 00:38:51;;;;;;;11.60;5.10;;;;;;;25.72;49.62;100511.72;5020469;28;20028;-87
2022/08/09 00:41:20;;;;;;;18.95;5.32;;;;;;;25.66;49.94;100496.09;5019627;28;20029;-86
2022/08/09 00:43:45;;;;;;;16.88;4.95;;;;;;;25.53;50.13;100491.56;5018508;28;20385;-86
2022/08/09 00:46:11;;;;;;;5.28;4.40;;;;;;;25.45;50.31;100472.53;5018760;28;20022;-87
2022/08/09 00:48:37;;;;;;;10.70;4.72;;;;;;;25.60;50.85;100497.84;5019672;28;20071;-86
2022/08/09 00:51:05;;;;;;;22.40;5.90;;;;;;;25.55;51.16;100505.09;5018613;28;20104;-87
2022/08/09 00:53:31;;;;;;;17.98;4.82;;;;;;;25.35;51.38;100478.53;5002351;28;20026;-87
2022/08/09 00:55:57;;;;;;;16.75;5.72;;;;;;;25.37;51.49;100475.56;5017780;28;20173;-85
2022/08/09 00:58:23;;;;;;;12.27;5.03;;;;;;;25.30;51.57;100470.13;5017201;28;20077;-86
2022/08/09 01:00:53;;;;;;;11.30;4.85;;;;;;;25.27;52.22;100486.22;5017201;28;20029;-86
2022/08/09 01:03:21;;;;;;;16.83;4.93;;;;;;;25.36;52.41;100485.75;5016675;28;20026;-86
2022/08/09 01:05:54;;;;;;;16.65;5.90;;;;;;;25.35;52.55;100488.72;5016067;28;20049;-87
2022/08/09 01:08:53;;;;;;;22.00;4.95;;;;;;;25.36;52.02;100502.25;4998449;28;20407;-87
2022/08/09 01:11:34;;;;;;;20.83;6.00;;;;;;;25.30;51.77;100497.66;4998691;28;20037;-86
2022/08/09 01:14:08;;;;;;;10.13;5.65;;;;;;;25.34;51.90;100492.53;5015746;28;20076;-86
2022/08/09 01:16:43;;;;;;;7.85;4.90;;;;;;;25.23;51.93;100479.47;5015093;28;20514;-86
2022/08/09 01:19:36;;;;;;;7.03;4.47;;;;;;;25.33;51.80;100486.19;5016298;28;20029;-86
2022/08/09 01:22:43;;;;;;;17.45;5.07;;;;;;;25.33;52.37;100497.19;5015418;28;20029;-86
2022/08/09 01:25:36;;;;;;;19.95;5.30;;;;;;;25.29;53.09;100489.59;5014858;28;20413;-86
2022/08/09 01:28:05;;;;;;;11.25;4.85;;;;;;;25.12;53.38;100469.19;4998228;28;20128;-86
2022/08/09 01:30:33;;;;;;;16.05;5.30;;;;;;;25.23;53.47;100473.97;4998373;28;20084;-86
2022/08/09 01:33:00;;;;;;;20.35;6.13;;;;;;;25.21;53.67;100471.47;5015343;28;20034;-84
2022/08/09 01:35:34;;;;;;;14.95;5.72;;;;;;;25.13;53.64;100446.13;5021263;28;20096;-82
2022/08/09 01:38:05;;;;;;;14.65;4.78;;;;;;;25.28;53.41;100460.41;5005879;28;20444;-83
2022/08/09 01:40:32;;;;;;;8.38;4.68;;;;;;;25.17;53.36;100452.84;5007265;28;20025;-83
2022/08/09 01:42:59;;;;;;;11.75;4.72;;;;;;;25.27;53.11;100464.22;5027066;28;20032;-83
2022/08/09 01:45:26;;;;;;;8.60;4.82;;;;;;;25.19;52.80;100445.22;5025408;28;20029;-84
2022/08/09 01:47:52;;;;;;;10.10;5.15;;;;;;;25.22;52.60;100444.78;5026382;28;20090;-85
2022/08/09 01:50:22;;;;;;;9.05;4.70;;;;;;;25.15;53.01;100433.81;5024860;28;20065;-85
2022/08/09 01:52:48;;;;;;;10.43;4.90;;;;;;;25.18;52.80;100438.88;5007433;28;20034;-84
2022/08/09 01:55:15;;;;;;;9.45;5.25;;;;;;;25.25;52.71;100445.19;5005171;28;20060;-85
2022/08/09 01:57:44;;;;;;;14.68;5.63;;;;;;;25.36;52.47;100460.09;5015356;28;20058;-86
2022/08/09 02:00:13;;;;;;;11.98;4.50;;;;;;;25.32;52.35;100445.94;4997253;28;20030;-86
2022/08/09 02:02:48;;;;;;;13.27;5.18;;;;;;;25.36;52.11;100441.69;4997750;28;20033;-86
2022/08/09 02:05:18;;;;;;;14.00;4.85;;;;;;;25.39;51.92;100443.13;5016001;28;20060;-86
2022/08/09 02:07:48;;;;;;;6.47;5.05;;;;;;;25.43;52.07;100442.47;4998825;28;20118;-86
2022/08/09 02:10:19;;;;;;;7.30;4.70;;;;;;;25.45;51.99;100445.84;5016089;28;20029;-85
2022/08/09 02:12:47;;;;;;;8.95;5.57;;;;;;;25.33;51.97;100430.28;5017266;28;20041;-86
2022/08/09 02:15:15;;;;;;;7.55;4.25;;;;;;;25.33;52.06;100435.78;5015296;28;20488;-86
2022/08/09 02:17:43;;;;;;;11.40;5.10;;;;;;;25.40;52.39;100442.94;5014956;28;20026;-86
2022/08/09 02:20:09;;;;;;;10.77;4.97;;;;;;;25.38;52.03;100433.22;5014840;28;20040;-86
2022/08/09 02:22:39;;;;;;;11.38;5.13;;;;;;;25.42;52.05;100450.94;4997865;28;20057;-86
2022/08/09 02:25:29;;;;;;;10.90;5.53;;;;;;;25.33;51.91;100439.38;4997364;28;20033;-85
2022/08/09 02:28:00;;;;;;;7.47;5.20;;;;;;;25.37;52.20;100443.38;5014704;28;20033;-86
2022/08/09 02:30:30;;;;;;;15.05;5.72;;;;;;;25.45;52.32;100442.22;4997118;28;20458;-85
2022/08/09 02:32:58;;;;;;;14.00;5.22;;;;;;;25.25;52.88;100427.81;5014720;28;20037;-85
2022/08/09 02:35:26;;;;;;;8.88;5.43;;;;;;;25.34;53.07;100451.25;5014371;28;20073;-85
2022/08/09 02:37:58;;;;;;;11.50;4.63;;;;;;;25.23;53.31;100451.94;4997178;28;20053;-86
2022/08/09 02:40:25;;;;;;;10.18;5.13;;;;;;;25.28;53.51;100477.78;5014236;28;20087;-85
2022/08/09 02:42:54;;;;;;;8.68;5.30;;;;;;;25.16;53.65;100452.03;5013978;28;20170;-86
2022/08/09 02:45:42;;;;;;;7.45;5.10;;;;;;;25.23;54.19;100479.47;5014159;28;20053;-86
2022/08/09 02:48:12;;;;;;;15.70;5.35;;;;;;;25.06;54.77;100459.09;4996598;28;20026;-86
2022/08/09 02:50:47;;;;;;;6.80;5.43;;;;;;;25.09;55.23;100475.16;5014009;28;20032;-86
2022/08/09 02:53:19;;;;;;;12.25;5.80;;;;;;;25.04;55.90;100475.84;5014249;28;20032;-86
2022/08/09 02:55:46;;;;;;;18.08;6.15;;;;;;;24.84;56.11;100459.44;4997419;28;20349;-86
2022/08/09 02:58:14;;;;;;;15.70;6.03;;;;;;;24.92;56.66;100494.13;5014493;28;20118;-86
2022/08/09 03:00:41;;;;;;;8.52;5.70;;;;;;;24.79;56.91;100477.66;5014326;28;20029;-86
2022/08/09 03:03:07;;;;;;;9.88;6.22;;;;;;;24.85;57.10;100493.31;4996729;28;20413;-86
2022/08/09 03:05:34;;;;;;;10.77;6.00;;;;;;;24.73;57.67;100495.91;5014057;28;20026;-86
2022/08/09 03:08:02;;;;;;;19.90;6.53;;;;;;;24.71;57.80;100486.16;4997166;28;20472;-86
2022/08/09 03:10:28;;;;;;;11.15;6.80;;;;;;;24.68;58.08;100492.09;5014947;28;20033;-86
2022/08/09 03:12:55;;;;;;;16.73;6.60;;;;;;;24.57;58.05;100482.63;4997272;28;20029;-86
2022/08/09 03:15:23;;;;;;;11.20;6.43;;;;;;;24.69;58.13;100505.63;4996296;28;20487;-85
2022/08/09 03:17:50;;;;;;;9.27;6.35;;;;;;;24.52;58.18;100487.97;5013521;28;20037;-85
2022/08/09 03:20:16;;;;;;;8.68;5.93;;;;;;;24.62;58.43;100487.47;5014251;28;20087;-85
2022/08/09 03:22:45;;;;;;;13.63;6.43;;;;;;;24.60;58.30;100490.44;5014410;28;20030;-87
2022/08/09 03:25:12;;;;;;;10.98;6.35;;;;;;;24.55;58.75;100503.19;5014744;28;20105;-86
2022/08/09 03:27:38;;;;;;;20.50;6.85;;;;;;;24.61;58.99;100499.56;5015238;28;20034;-86
2022/08/09 03:30:04;;;;;;;16.95;6.25;;;;;;;24.60;59.16;100501.44;5014568;28;20034;-86
2022/08/09 03:32:32;;;;;;;12.90;6.30;;;;;;;24.69;59.26;100521.28;5014283;28;20022;-86
2022/08/09 03:34:59;;;;;;;16.25;8.20;;;;;;;24.71;59.38;100513.66;5014841;28;20030;-87
2022/08/09 03:37:26;;;;;;;17.50;7.07;;;;;;;24.69;59.39;100519.38;4997565;28;20080;-86
2022/08/09 03:39:52;;;;;;;24.17;6.30;;;;;;;24.65;59.29;100509.88;5014460;28;20071;-86
2022/08/09 03:42:17;;;;;;;11.18;7.78;;;;;;;24.62;59.53;100509.47;4997137;28;20022;-86
2022/08/09 03:44:43;;;;;;;12.73;7.45;;;;;;;24.64;59.97;100512.88;5014233;28;20014;-86
2022/08/09 03:47:08;;;;;;;24.30;7.70;;;;;;;24.58;60.24;100503.59;5013918;28;20412;-86
2022/08/09 03:49:35;;;;;;;12.93;6.88;;;;;;;24.53;60.16;100500.63;5013595;28;20036;-85
2022/08/09 03:52:01;;;;;;;19.02;7.05;;;;;;;24.68;60.58;100536.94;5014261;28;20061;-88
2022/08/09 03:54:47;;;;;;;13.48;7.30;;;;;;;24.64;60.62;100513.72;4997084;28;20121;-87
2022/08/09 03:57:19;;;;;;;13.80;6.70;;;;;;;24.56;60.78;100516.69;5021310;28;20068;-85
2022/08/09 03:59:45;;;;;;;;;;;;;;;24.63;60.95;100528.53;5026005;28;20092;-83
2022/08/09 04:02:11;;;;;;;10.57;6.43;;;;;;;24.52;61.13;100520.97;4984008;28;20295;-87
2022/08/09 04:04:36;;;;;;;22.90;7.53;;;;;;;24.52;61.27;100520.13;5017715;28;20567;-85
2022/08/09 04:07:03;;;;;;;7.88;6.00;;;;;;;24.63;61.31;100534.03;5001151;28;20026;-91
2022/08/09 04:09:28;;;;;;;20.83;7.75;;;;;;;24.53;60.93;100508.88;5000781;28;20094;-86
2022/08/09 04:12:09;;;;;;;15.30;8.15;;;;;;;24.65;61.23;100526.38;5016897;28;20054;-84
2022/08/09 04:14:37;;;;;;;11.15;7.18;;;;;;;24.59;61.21;100516.25;5018378;28;20030;-84
2022/08/09 04:17:02;;;;;;;13.23;7.90;;;;;;;24.60;60.95;100523.47;5016796;28;20038;-81
2022/08/09 04:19:28;;;;;;;19.10;7.82;;;;;;;24.64;60.98;100510.13;4999115;28;20105;-81
2022/08/09 04:21:53;;;;;;;19.75;6.90;;;;;;;24.74;60.87;100529.72;5016292;28;20484;-80
2022/08/09 04:24:19;;;;;;;9.68;6.65;;;;;;;24.66;60.60;100507.97;5016955;28;20057;-84
2022/08/09 04:26:45;;;;;;;10.25;6.68;;;;;;;24.82;60.32;100519.38;5017964;28;20022;-85
2022/08/09 04:29:10;;;;;;;19.67;7.32;;;;;;;24.74;60.58;100503.06;5017497;28;20437;-89
2022/08/09 04:31:36;;;;;;;17.13;7.47;;;;;;;24.81;60.62;100523.16;5000905;28;20034;-83
2022/08/09 04:34:02;;;;;;;12.57;6.85;;;;;;;24.90;60.15;100524.59;4996041;28;20405;-81
2022/08/09 04:36:29;;;;;;;18.48;7.75;;;;;;;24.92;59.86;100511.44;4996216;28;20026;-80
2022/08/09 04:39:01;;;;;;;17.10;6.35;;;;;;;25.03;59.61;100523.69;4996855;28;20026;-82
2022/08/09 04:41:27;;;;;;;30.33;8.50;;;;;;;25.02;59.90;100510.13;4995443;28;20023;-79
2022/08/09 04:43:53;;;;;;;15.68;7.22;;;;;;;25.06;59.25;100511.38;4995216;28;20084;-83
2022/08/09 04:46:20;;;;;;;11.85;6.75;;;;;;;25.03;59.24;100503.56;4976700;28;20120;-78
2022/08/09 04:48:45;;;;;;;21.70;7.05;;;;;;;25.17;58.76;100525.25;4994158;28;20097;-78
2022/08/09 04:51:11;;;;;;;16.00;7.07;;;;;;;25.21;58.79;100522.91;4993974;28;20525;-80
2022/08/09 04:53:38;;;;;;;24.30;7.88;;;;;;;25.27;58.76;100519.28;4994935;28;20029;-81
2022/08/09 04:56:03;;;;;;;9.75;5.65;;;;;;;25.35;58.73;100522.59;4995165;28;20125;-80
2022/08/09 04:58:29;;;;;;;32.83;8.45;;;;;;;25.36;58.47;100517.94;4994991;28;20092;-80
2022/08/09 05:00:55;;;;;;;13.55;6.45;;;;;;;25.47;58.35;100530.16;4995372;28;20030;-88
2022/08/09 05:03:22;;;;;;;15.48;6.22;;;;;;;25.35;58.38;100508.00;4995547;28;20033;-83
2022/08/09 05:05:47;;;;;;;14.07;6.63;;;;;;;25.56;58.10;100529.69;4978484;28;20015;-84
2022/08/09 05:08:13;;;;;;;14.23;6.47;;;;;;;25.55;58.05;100532.66;4994303;28;20025;-85
2022/08/09 05:10:40;;;;;;;14.43;6.38;;;;;;;25.64;57.93;100526.63;4996052;28;20147;-84
2022/08/09 05:13:05;;;;;;;21.73;6.90;;;;;;;25.63;57.76;100529.59;4994401;28;20034;-87
2022/08/09 05:15:31;;;;;;;20.10;6.63;;;;;;;25.91;57.57;100544.59;4995577;28;20473;-85
2022/08/09 05:17:56;;;;;;;17.48;6.25;;;;;;;25.93;57.29;100514.91;4995794;28;20034;-85
2022/08/09 05:20:24;;;;;;;21.40;6.55;;;;;;;26.15;56.54;100528.25;4995126;28;20057;-80
2022/08/09 05:22:52;;;;;;;20.05;7.10;;;;;;;26.20;56.31;100520.19;4995063;28;20472;-81
2022/08/09 05:25:20;;;;;;;69.03;8.73;;;;;;;26.33;55.88;100525.53;4995435;28;20029;-79
2022/08/09 05:27:47;;;;;;;17.92;6.70;;;;;;;26.52;55.49;100528.06;4995415;28;20054;-83
2022/08/09 05:30:13;;;;;;;40.38;8.60;;;;;;;26.64;55.16;100535.53;4995972;28;20492;-82
2022/08/09 05:32:38;;;;;;;17.80;7.15;;;;;;;26.74;54.25;100528.41;5015080;28;20022;-80
2022/08/09 05:35:04;;;;;;;19.40;6.40;;;;;;;26.74;54.20;100513.75;5001538;28;20520;-84
2022/08/09 05:37:30;;;;;;;11.75;5.60;;;;;;;26.92;54.33;100535.84;4994726;28;20026;-79
2022/08/09 05:39:57;;;;;;;11.45;5.85;;;;;;;26.98;53.78;100524.72;4994822;28;20042;-82
2022/08/09 05:42:23;;;;;;;24.20;6.60;;;;;;;27.17;53.12;100536.53;4995590;28;20037;-83
2022/08/09 05:44:50;;;;;;;11.88;6.07;;;;;;;27.26;52.52;100531.53;4995169;28;20032;-85
2022/08/09 05:47:16;;;;;;;17.48;5.55;;;;;;;27.42;51.59;100545.53;4994263;28;20499;-79
2022/08/09 05:49:41;;;;;;;20.90;5.72;;;;;;;27.40;51.59;100530.25;4994059;28;20037;-78
2022/08/09 05:52:08;;;;;;;19.58;5.68;;;;;;;27.50;50.68;100538.81;4993961;28;20030;-84
2022/08/09 05:54:34;;;;;;;19.17;5.20;;;;;;;27.63;49.71;100535.84;4994304;28;20034;-80
2022/08/09 05:57:00;;;;;;;12.65;5.40;;;;;;;27.73;48.38;100538.84;4994970;28;20084;-80
2022/08/09 05:59:29;;;;;;;26.98;6.43;;;;;;;27.81;47.71;100544.03;4994891;28;20038;-79
2022/08/09 06:01:58;;;;;;;9.48;5.55;;;;;;;27.93;46.81;100546.78;4995008;28;20131;-80
2022/08/09 06:04:29;;;;;;;13.20;4.78;;;;;;;27.94;47.25;100532.75;4994167;28;20085;-80
2022/08/09 06:06:54;;;;;;;14.45;4.00;;;;;;;28.06;46.57;100539.13;4993052;28;20034;-79
2022/08/09 06:09:20;;;;;;;20.45;5.10;;;;;;;28.16;45.76;100551.53;4993905;28;20033;-79
2022/08/09 06:11:45;;;;;;;12.32;4.95;;;;;;;28.23;45.70;100543.91;4993549;28;20022;-78
2022/08/09 06:14:11;;;;;;;28.80;5.32;;;;;;;28.28;45.95;100536.59;4993032;28;20481;-80
2022/08/09 06:16:37;;;;;;;10.05;4.50;;;;;;;28.27;46.10;100528.53;4993646;28;20468;-80
2022/08/09 06:19:02;;;;;;;15.60;4.40;;;;;;;28.36;46.10;100543.66;4993188;28;20457;-80
2022/08/09 06:21:28;;;;;;;24.08;5.10;;;;;;;28.46;46.08;100538.34;4993463;28;20105;-79
2022/08/09 06:23:54;;;;;;;12.98;5.13;;;;;;;28.55;45.86;100553.50;4992868;28;20034;-80
2022/08/09 06:26:21;;;;;;;8.77;4.93;;;;;;;28.65;45.96;100553.75;4993078;28;20092;-80
2022/08/09 06:28:51;;;;;;;15.95;4.70;;;;;;;28.70;46.21;100553.84;4993130;28;20026;-79
2022/08/09 06:31:16;;;;;;;16.48;5.43;;;;;;;28.68;46.17;100536.66;4994188;28;20058;-79
2022/08/09 06:33:43;;;;;;;13.35;5.00;;;;;;;28.84;45.85;100551.63;4994493;28;20061;-79
2022/08/09 06:36:09;;;;;;;17.05;6.15;;;;;;;28.91;45.45;100557.88;4994079;28;20030;-80
2022/08/09 06:38:34;;;;;;;20.70;4.78;;;;;;;28.93;45.41;100544.59;4994217;28;20781;-80
2022/08/09 06:41:00;;;;;;;11.27;4.65;;;;;;;29.03;45.14;100562.28;4993934;28;20027;-79
2022/08/09 06:43:25;;;;;;;26.48;5.32;;;;;;;28.95;45.59;100543.31;4993764;28;20030;-79
2022/08/09 06:45:50;;;;;;;15.20;4.72;;;;;;;29.09;45.84;100554.91;4993742;28;20078;-80
2022/08/09 06:48:16;;;;;;;9.40;5.20;;;;;;;29.05;46.37;100549.00;4993664;28;20050;-79
2022/08/09 06:50:41;;;;;;;7.78;4.95;;;;;;;29.13;46.01;100545.88;4994085;28;20022;-79
2022/08/09 06:53:07;;;;;;;15.30;5.65;;;;;;;29.12;46.00;100544.19;5008662;28;20022;-79
2022/08/09 06:55:33;;;;;;;20.70;5.35;;;;;;;29.30;45.63;100556.16;5005532;28;20093;-80
2022/08/09 06:57:59;;;;;;;12.82;4.97;;;;;;;29.29;44.87;100549.78;4993823;28;20062;-81
2022/08/09 07:00:25;;;;;;;16.27;5.05;;;;;;;29.40;43.73;100542.50;4993744;28;20038;-79
2022/08/09 07:02:51;;;;;;;17.33;5.85;;;;;;;29.44;44.27;100535.38;4993220;28;20105;-79
2022/08/09 07:05:17;;;;;;;13.80;4.20;;;;;;;29.64;43.25;100563.44;4993269;28;20050;-79
2022/08/09 07:07:43;;;;;;;14.73;4.10;;;;;;;29.74;41.39;100543.34;4993785;28;20085;-80
2022/08/09 07:10:11;;;;;;;11.32;4.30;;;;;;;29.79;40.69;100544.25;4994129;28;20157;-77
2022/08/09 07:12:37;;;;;;;19.40;4.00;;;;;;;29.87;39.89;100546.66;4993762;28;20088;-79
2022/08/09 07:15:04;;;;;;;13.05;5.00;;;;;;;29.87;39.88;100529.19;4993555;28;20034;-79
2022/08/09 07:17:29;;;;;;;9.90;3.55;;;;;;;30.01;40.10;100548.00;4993664;28;20031;-79
2022/08/09 07:19:55;;;;;;;11.73;5.13;;;;;;;30.10;39.90;100546.47;4993861;28;20188;-80
2022/08/09 07:22:20;;;;;;;12.52;4.55;;;;;;;30.27;39.83;100540.03;4993829;28;20033;-78
2022/08/09 07:24:46;;;;;;;9.25;4.18;;;;;;;30.35;39.99;100542.38;4993502;28;20031;-78
2022/08/09 07:27:11;;;;;;;8.55;5.13;;;;;;;30.45;39.04;100543.38;4993351;28;20053;-80
2022/08/09 07:29:37;;;;;;;5.28;3.10;;;;;;;30.53;37.99;100544.88;4993167;28;20030;-79
2022/08/09 07:32:03;;;;;;;17.90;3.67;;;;;;;30.63;35.59;100528.34;4993342;28;20026;-79
2022/08/09 07:34:29;;;;;;;10.55;3.47;;;;;;;30.70;34.45;100526.22;4993200;28;20026;-80
2022/08/09 07:36:55;;;;;;;8.68;3.15;;;;;;;30.73;33.93;100528.47;4996209;28;20451;-79
2022/08/09 07:39:20;;;;;;;9.70;2.95;;;;;;;30.90;34.10;100532.00;4997607;28;20026;-78
2022/08/09 07:41:46;;;;;;;9.52;2.88;;;;;;;31.01;32.99;100536.59;4979397;28;20125;-79
2022/08/09 07:44:12;;;;;;;10.52;3.58;;;;;;;31.20;33.42;100539.84;4996982;28;20101;-80
2022/08/09 07:46:40;;;;;;;25.48;4.00;;;;;;;31.29;32.60;100547.47;4997096;28;20026;-79
2022/08/09 07:49:06;;;;;;;8.70;3.30;;;;;;;31.40;32.42;100539.22;4996676;28;20069;-79
2022/08/09 07:51:31;;;;;;;20.35;3.63;;;;;;;31.43;32.10;100527.56;4997060;28;20054;-79
2022/08/09 07:53:57;;;;;;;6.70;2.80;;;;;;;31.59;32.70;100540.56;4996472;28;20033;-79
2022/08/09 07:56:24;;;;;;;21.52;3.10;;;;;;;31.67;32.07;100543.69;4996504;28;20116;-78
2022/08/09 07:58:50;;;;;;;9.90;2.95;;;;;;;31.71;30.87;100538.44;4996457;28;20107;-79
2022/08/09 08:01:15;;;;;;;17.38;3.75;;;;;;;31.79;29.89;100538.78;4996752;28;20366;-79
2022/08/09 08:03:41;;;;;;;19.35;2.90;;;;;;;31.93;30.13;100533.56;4996870;28;20105;-79
2022/08/09 08:06:07;;;;;;;17.92;5.53;;;;;;;32.02;28.51;100534.75;4996994;28;20381;-80
2022/08/09 08:08:32;;;;;;;9.00;2.60;;;;;;;32.11;27.27;100530.38;4996646;28;20033;-80
2022/08/09 08:10:58;;;;;;;25.55;3.65;;;;;;;32.16;26.93;100538.78;4996116;28;20033;-79
2022/08/09 08:13:23;;;;;;;11.25;3.13;;;;;;;32.27;27.24;100532.16;4996425;28;20107;-82
2022/08/09 08:15:49;;;;;;;25.25;2.90;;;;;;;32.35;26.72;100534.41;4996249;28;20033;-79
2022/08/09 08:18:14;;;;;;;11.07;3.33;;;;;;;32.31;28.09;100524.94;4996129;28;20473;-80
2022/08/09 08:20:40;;;;;;;10.68;3.35;;;;;;;32.44;28.22;100522.78;4996671;28;20362;-80
2022/08/09 08:23:05;;;;;;;12.48;3.10;;;;;;;32.46;28.89;100513.03;4996824;28;20049;-80
2022/08/09 08:25:31;;;;;;;21.63;3.40;;;;;;;32.60;29.14;100530.13;4996295;28;20037;-79
2022/08/09 08:27:57;;;;;;;14.48;3.08;;;;;;;32.71;28.44;100523.50;4996256;28;20512;-79
2022/08/09 08:30:23;;;;;;;26.92;3.45;;;;;;;32.79;28.54;100523.78;4995914;28;20465;-79
2022/08/09 08:32:50;;;;;;;12.18;3.60;;;;;;;32.86;28.58;100520.75;4978497;28;20026;-78
2022/08/09 08:35:16;;;;;;;9.50;3.38;;;;;;;32.85;28.49;100511.53;4996110;28;20027;-80
2022/08/09 08:37:41;;;;;;;12.23;2.20;;;;;;;32.98;24.25;100506.56;4996393;28;20037;-80
2022/08/09 08:40:08;;;;;;;45.85;5.95;;;;;;;33.10;24.15;100513.59;4995521;28;20069;-80
2022/08/09 08:42:33;;;;;;;16.83;3.13;;;;;;;33.20;24.53;100510.84;4995656;28;20030;-79
2022/08/09 08:45:00;;;;;;;19.77;3.30;;;;;;;33.23;24.39;100512.22;4995478;28;20025;-77
2022/08/09 08:47:27;;;;;;;31.65;3.42;;;;;;;33.24;24.96;100522.28;4977946;28;20030;-80
2022/08/09 08:49:58;;;;;;;53.20;5.40;;;;;;;33.25;25.36;100518.34;4995267;28;20496;-77
2022/08/09 08:52:26;;;;;;;17.67;2.85;;;;;;;33.30;25.88;100524.75;4978048;28;20034;-80
2022/08/09 08:54:53;;;;;;;26.15;3.67;;;;;;;33.32;26.20;100518.94;4995666;28;20467;-79
2022/08/09 08:57:20;;;;;;;26.30;5.57;;;;;;;33.31;26.64;100509.72;4995607;28;20088;-79
2022/08/09 08:59:46;;;;;;;20.98;3.75;;;;;;;33.40;26.68;100516.41;4995542;28;20038;-80
2022/08/09 09:02:25;;;;;;;28.17;3.28;;;;;;;33.42;27.25;100498.59;4995592;28;20030;-78
2022/08/09 09:04:52;;;;;;;26.15;4.10;;;;;;;33.50;27.37;100510.00;4995412;28;20027;-78
2022/08/09 09:07:18;;;;;;;23.75;3.78;;;;;;;33.65;27.46;100512.81;4995284;28;20479;-79
2022/08/09 09:09:48;;;;;;;11.63;4.20;;;;;;;33.78;27.76;100505.84;4995635;28;20109;-78
2022/08/09 09:12:18;;;;;;;16.15;3.90;;;;;;;33.75;27.47;100507.25;4995248;28;20033;-80
2022/08/09 09:14:45;;;;;;;35.00;4.18;;;;;;;33.83;27.48;100503.03;4995445;28;20038;-80
2022/08/09 09:17:11;;;;;;;34.72;3.90;;;;;;;33.84;27.48;100507.50;4995658;28;20027;-80
2022/08/09 09:19:37;;;;;;;18.90;3.28;;;;;;;33.91;27.57;100499.69;4996106;28;20023;-79
2022/08/09 09:22:12;;;;;;;16.35;4.28;;;;;;;33.95;26.44;100506.38;4995371;28;20063;-79
2022/08/09 09:24:52;;;;;;;16.40;4.20;;;;;;;34.13;25.45;100505.00;4995234;28;20022;-80
2022/08/09 09:27:24;;;;;;;18.98;3.67;;;;;;;34.12;25.41;100484.59;4995800;28;20440;-79
2022/08/09 09:29:51;;;;;;;44.72;5.03;;;;;;;34.16;25.47;100496.84;4995552;28;20527;-80
2022/08/09 09:32:19;;;;;;;11.32;3.08;;;;;;;34.16;25.11;100496.84;4995697;28;20022;-80
2022/08/09 09:35:10;;;;;;;7.20;2.53;;;;;;;34.23;23.97;100491.81;4995323;28;20034;-79
2022/08/09 09:37:37;;;;;;;20.55;3.20;;;;;;;34.25;23.58;100489.56;4994891;28;20428;-80
2022/08/09 09:40:04;;;;;;;13.60;3.38;;;;;;;34.26;23.87;100480.09;4995389;28;20037;-79
2022/08/09 09:42:30;;;;;;;19.40;2.78;;;;;;;34.35;23.88;100475.59;4994482;28;20026;-79
2022/08/09 09:44:57;;;;;;;17.50;3.03;;;;;;;34.51;23.85;100490.31;4994878;28;20026;-79
2022/08/09 09:47:23;;;;;;;17.42;3.45;;;;;;;34.58;23.68;100478.84;4994969;28;20029;-80
2022/08/09 09:49:50;;;;;;;17.80;2.55;;;;;;;34.58;22.70;100471.31;4994589;28;20026;-80
2022/08/09 09:52:16;;;;;;;16.08;3.63;;;;;;;34.58;22.52;100465.72;4977310;28;20030;-80
2022/08/09 09:54:45;;;;;;;12.00;2.33;;;;;;;34.53;23.20;100464.88;4995031;28;20045;-79
2022/08/09 09:57:18;;;;;;;22.58;3.58;;;;;;;34.77;23.13;100488.28;4981772;28;20116;-80
2022/08/09 09:59:45;;;;;;;14.80;2.50;;;;;;;34.78;21.89;100474.00;4974833;28;20030;-81
2022/08/09 10:02:12;;;;;;;11.10;1.95;;;;;;;34.66;21.95;100453.97;4975557;28;20109;-79
2022/08/09 10:04:39;;;;;;;25.92;2.42;;;;;;;34.77;21.50;100474.31;4975497;28;20061;-80
2022/08/09 10:07:18;;;;;;;34.30;4.18;;;;;;;34.72;21.38;100479.91;4975152;28;20022;-80
2022/08/09 10:09:47;;;;;;;16.05;2.90;;;;;;;34.72;21.62;100460.34;4975040;28;20026;-79
2022/08/09 10:12:27;;;;;;;20.98;3.92;;;;;;;34.71;21.31;100453.09;4975408;28;20037;-80
2022/08/09 10:15:03;;;;;;;9.13;2.13;;;;;;;34.76;21.05;100469.84;4975092;28;20427;-80
2022/08/09 10:17:33;;;;;;;13.95;3.58;;;;;;;34.79;21.74;100472.91;4974645;28;20035;-81
2022/08/09 10:20:00;;;;;;;26.13;2.78;;;;;;;34.78;20.46;100467.56;4974720;28;20034;-81
2022/08/09 10:22:37;;;;;;;18.42;2.70;;;;;;;34.82;20.28;100460.28;4974718;28;20041;-79
2022/08/09 10:25:05;;;;;;;20.00;2.17;;;;;;;34.92;20.47;100449.06;4974298;28;20026;-80
2022/08/09 10:27:31;;;;;;;9.50;2.05;;;;;;;35.14;20.93;100474.63;4974492;28;20030;-80
2022/08/09 10:30:02;;;;;;;18.70;3.17;;;;;;;35.35;20.86;100464.16;4974470;28;20166;-79
2022/08/09 10:32:27;;;;;;;6.38;2.50;;;;;;;35.37;20.11;100465.53;4974087;28;20069;-80
2022/08/09 10:34:54;;;;;;;21.23;3.50;;;;;;;35.44;19.43;100474.38;4974674;28;20058;-80
2022/08/09 10:37:20;;;;;;;16.05;2.45;;;;;;;35.58;20.01;100474.59;4974637;28;20038;-80
2022/08/09 10:39:47;;;;;;;9.48;2.45;;;;;;;35.71;20.13;100461.88;4974962;28;20035;-80
2022/08/09 10:42:14;;;;;;;21.38;2.53;;;;;;;35.73;19.63;100463.25;4974870;28;20038;-79
2022/08/09 10:44:43;;;;;;;14.55;2.47;;;;;;;35.71;19.06;100467.47;4973811;28;20027;-80
2022/08/09 10:47:47;;;;;;;8.93;2.03;;;;;;;35.79;19.45;100458.44;4974362;28;20501;-80
2022/08/09 10:50:22;;;;;;;16.98;2.92;;;;;;;35.80;19.15;100462.91;4974211;28;20023;-80
2022/08/09 10:53:07;;;;;;;18.35;2.97;;;;;;;35.81;18.46;100461.78;4974800;28;20040;-79
2022/08/09 10:55:34;;;;;;;10.40;1.88;;;;;;;35.89;19.32;100452.75;4957062;28;20417;-80
2022/08/09 10:58:00;;;;;;;13.35;1.95;;;;;;;35.94;19.17;100466.66;4974060;28;20058;-79
2022/08/09 11:00:40;;;;;;;19.48;2.92;;;;;;;36.02;18.71;100460.44;4974143;28;20019;-78
2022/08/09 11:03:21;;;;;;;7.68;2.03;;;;;;;35.67;19.08;100444.00;4956582;28;20465;-79
2022/08/09 11:06:17;;;;;;;11.52;2.75;;;;;;;35.95;18.87;100468.34;4974652;28;20019;-78
2022/08/09 11:08:45;;;;;;;30.50;2.83;;;;;;;35.96;18.45;100451.25;4974277;28;20037;-78
2022/08/09 11:11:10;;;;;;;14.60;2.92;;;;;;;36.11;17.99;100460.66;4978335;28;20046;-78
2022/08/09 11:13:36;;;;;;;3.10;1.42;;;;;;;36.14;18.05;100458.09;4978937;28;20023;-80
2022/08/09 11:16:30;;;;;;;7.97;2.75;;;;;;;36.25;18.02;100425.19;4978554;28;20022;-80
2022/08/09 11:18:56;;;;;;;18.73;3.00;;;;;;;36.26;17.07;100440.84;4978222;28;20023;-77
2022/08/09 11:22:00;;;;;;;5.90;2.08;;;;;;;36.40;18.18;100431.41;4978923;28;20117;-79
2022/08/09 11:24:25;;;;;;;15.98;2.45;;;;;;;36.35;17.70;100436.25;4978464;28;20033;-79
2022/08/09 11:26:51;;;;;;;14.30;2.67;;;;;;;36.38;17.36;100444.91;4977921;28;20026;-79